Time;durP1;ratioP1;P1;durP2;ratioP2;P2;SDS_P1;SDS_P2;PMS_P1;PMS_P2;Temp;Humidity;BMP_temperature;BMP_pressure;BME280_temperature;BME280_humidity;BME280_pressure;Samples;Min_cycle;Max_cycle;Signal;HPM_P1;HPM_P2
2021/04/23 06:04:36;;;;;;;20.98;4.93;;;9.30;99.90;;;;;;5229573;23;20508;-79
2021/04/23 06:07:02;;;;;;;28.85;6.70;;;8.80;99.90;;;;;;4975268;28;20057;-78
2021/04/23 06:09:29;;;;;;;39.22;15.02;;;8.50;99.90;;;;;;4974974;28;20129;-80
2021/04/23 06:11:55;;;;;;;11.57;4.53;;;9.50;99.90;;;;;;4974784;28;20055;-79
2021/04/23 06:14:23;;;;;;;20.65;5.60;;;10.40;99.90;;;;;;4957888;28;20057;-79
2021/04/23 06:16:52;;;;;;;21.38;4.65;;;11.80;96.20;;;;;;4974906;28;20050;-78
2021/04/23 06:19:20;;;;;;;19.42;5.45;;;12.40;92.40;;;;;;4975063;28;20134;-80
2021/04/23 06:21:47;;;;;;;28.15;5.07;;;12.00;91.60;;;;;;4957988;28;20083;-80
2021/04/23 06:24:14;;;;;;;27.42;5.20;;;12.20;89.10;;;;;;4957841;28;20054;-79
2021/04/23 06:26:40;;;;;;;49.83;6.88;;;12.40;87.00;;;;;;4975020;28;20389;-79
2021/04/23 06:29:06;;;;;;;24.50;7.72;;;12.70;86.60;;;;;;4958058;28;20463;-79
2021/04/23 06:31:33;;;;;;;10.82;4.20;;;12.20;88.60;;;;;;4957805;28;20043;-80
2021/04/23 06:33:59;;;;;;;17.48;5.28;;;11.70;89.20;;;;;;4958156;28;20050;-78
2021/04/23 06:36:26;;;;;;;24.48;6.05;;;11.40;91.40;;;;;;4975037;28;20054;-79
2021/04/23 06:38:52;;;;;;;24.45;4.90;;;11.20;93.60;;;;;;4957361;28;20145;-79
2021/04/23 06:41:18;;;;;;;30.73;5.10;;;11.30;93.40;;;;;;4957772;28;20062;-77
2021/04/23 06:43:45;;;;;;;12.88;3.67;;;10.90;93.70;;;;;;4957636;28;20139;-79
2021/04/23 06:46:12;;;;;;;15.60;4.00;;;10.60;95.90;;;;;;4974548;28;20134;-79
2021/04/23 06:48:41;;;;;;;22.52;4.60;;;10.30;97.80;;;;;;4975100;28;20058;-79
2021/04/23 06:51:08;;;;;;;34.42;5.50;;;9.80;99.90;;;;;;4959242;28;20055;-80
2021/04/23 06:53:35;;;;;;;12.48;3.90;;;9.80;99.90;;;;;;4959238;28;20065;-79
2021/04/23 06:56:02;;;;;;;27.13;5.18;;;9.80;99.90;;;;;;4975555;28;20078;-79
2021/04/23 06:58:29;;;;;;;26.88;5.15;;;10.00;99.90;;;;;;4959240;28;20050;-78
2021/04/23 07:00:56;;;;;;;15.63;4.78;;;9.90;99.90;;;;;;4959056;28;20090;-81
2021/04/23 07:03:22;;;;;;;25.38;6.03;;;9.80;99.90;;;;;;4959157;28;20074;-80
2021/04/23 07:05:49;;;;;;;22.95;6.70;;;9.60;99.90;;;;;;4959285;28;20488;-79
2021/04/23 07:08:15;;;;;;;23.38;5.22;;;9.50;99.90;;;;;;4976539;28;20050;-80
2021/04/23 07:10:42;;;;;;;17.52;5.28;;;9.30;99.90;;;;;;4959604;28;20085;-81
2021/04/23 07:13:11;;;;;;;20.60;6.22;;;9.20;99.90;;;;;;4976121;28;20051;-78
2021/04/23 07:15:37;;;;;;;14.18;4.70;;;9.30;99.90;;;;;;4976146;28;20074;-80
2021/04/23 07:18:04;;;;;;;17.48;6.20;;;9.50;99.90;;;;;;4959002;28;20042;-80
2021/04/23 07:20:36;;;;;;;17.30;5.13;;;9.70;99.90;;;;;;4975923;28;20495;-81
2021/04/23 07:23:04;;;;;;;20.15;6.00;;;9.40;99.90;;;;;;4976381;28;20051;-79
2021/04/23 07:25:31;;;;;;;10.70;5.03;;;9.40;99.90;;;;;;4959464;28;20134;-80
2021/04/23 07:27:59;;;;;;;11.45;5.05;;;9.40;99.90;;;;;;4958559;28;20050;-80
2021/04/23 07:30:29;;;;;;;21.15;4.80;;;9.60;99.90;;;;;;4959524;28;20475;-79
2021/04/23 07:32:56;;;;;;;12.70;5.50;;;9.30;99.90;;;;;;4960026;28;20101;-79
2021/04/23 07:35:24;;;;;;;12.98;5.28;;;8.80;99.90;;;;;;4959928;28;20121;-79
2021/04/23 07:37:50;;;;;;;8.45;4.50;;;8.60;99.90;;;;;;4959239;28;20046;-79
2021/04/23 07:40:19;;;;;;;7.68;4.72;;;8.50;99.90;;;;;;4976549;28;20047;-80
2021/04/23 07:42:47;;;;;;;9.50;4.40;;;8.60;99.90;;;;;;4976077;28;20126;-79
2021/04/23 07:45:14;;;;;;;23.38;5.50;;;8.50;99.90;;;;;;4978388;28;20050;-80
2021/04/23 07:47:42;;;;;;;14.02;5.35;;;8.60;99.90;;;;;;4981153;28;20078;-80
2021/04/23 07:50:10;;;;;;;18.38;4.63;;;8.50;99.90;;;;;;4962859;28;20047;-79
2021/04/23 07:52:37;;;;;;;9.57;4.20;;;8.20;99.90;;;;;;4980154;28;20082;-80
2021/04/23 07:55:06;;;;;;;15.07;4.78;;;8.20;99.90;;;;;;4960708;28;20055;-79
2021/04/23 07:57:36;;;;;;;10.40;4.80;;;8.10;99.90;;;;;;4977480;28;20105;-79
2021/04/23 08:00:07;;;;;;;19.27;5.38;;;7.90;99.90;;;;;;4977423;28;20055;-78
2021/04/23 08:02:34;;;;;;;7.75;4.80;;;8.40;99.90;;;;;;4960258;28;20491;-79
2021/04/23 08:05:00;;;;;;;5.80;4.60;;;8.60;99.90;;;;;;4977509;28;20054;-78
2021/04/23 08:07:47;;;;;;;10.52;4.53;;;8.80;99.90;;;;;;4980373;28;20050;-80
2021/04/23 08:10:15;;;;;;;26.45;5.05;;;9.10;99.90;;;;;;4964107;28;20046;-80
2021/04/23 08:12:42;;;;;;;6.72;4.15;;;8.80;99.90;;;;;;4980881;28;20145;-80
2021/04/23 08:15:10;;;;;;;8.52;4.38;;;9.50;99.90;;;;;;4980797;28;20105;-80
2021/04/23 08:17:37;;;;;;;35.20;6.65;;;9.70;99.90;;;;;;4963505;28;20061;-80
2021/04/23 08:20:05;;;;;;;11.77;4.60;;;10.20;99.90;;;;;;4981689;28;20047;-81
2021/04/23 08:22:32;;;;;;;14.73;4.40;;;10.00;99.90;;;;;;4981174;28;20471;-80
2021/04/23 08:24:58;;;;;;;11.20;5.10;;;9.50;99.90;;;;;;4981030;28;20566;-81
2021/04/23 08:27:24;;;;;;;8.98;4.20;;;9.20;99.90;;;;;;4981498;28;20047;-80
2021/04/23 08:29:52;;;;;;;7.68;4.10;;;9.30;99.90;;;;;;4981074;28;20086;-80
2021/04/23 08:32:19;;;;;;;9.98;4.85;;;9.40;99.90;;;;;;4967236;28;20061;-81
2021/04/23 08:34:45;;;;;;;10.35;5.28;;;9.30;99.90;;;;;;4984151;28;20059;-80
2021/04/23 08:37:11;;;;;;;34.72;6.65;;;9.00;99.90;;;;;;4980668;28;20657;-79
2021/04/23 08:39:38;;;;;;;12.98;5.65;;;8.90;99.90;;;;;;4961352;28;20050;-80
2021/04/23 08:42:05;;;;;;;13.85;5.45;;;9.60;99.90;;;;;;4977484;28;20142;-80
2021/04/23 08:44:32;;;;;;;15.88;4.78;;;10.50;99.90;;;;;;4960433;28;20130;-80
2021/04/23 08:46:59;;;;;;;13.77;5.15;;;10.30;99.90;;;;;;4977233;28;20138;-80
2021/04/23 08:49:25;;;;;;;8.82;5.25;;;10.60;99.90;;;;;;4977651;28;20109;-79
2021/04/23 08:51:52;;;;;;;30.30;6.43;;;10.60;99.90;;;;;;4960349;28;20047;-80
2021/04/23 08:54:20;;;;;;;12.02;4.28;;;10.70;99.90;;;;;;4977187;28;20130;-80
2021/04/23 08:56:50;;;;;;;9.15;4.45;;;10.60;99.90;;;;;;4977237;28;20090;-81
2021/04/23 08:59:16;;;;;;;8.48;4.55;;;10.70;99.90;;;;;;4960939;28;20137;-81
2021/04/23 09:01:43;;;;;;;41.75;7.72;;;10.00;99.90;;;;;;4977856;28;20113;-80
2021/04/23 09:04:11;;;;;;;10.40;4.32;;;9.80;99.90;;;;;;4977711;28;20058;-81
2021/04/23 09:06:39;;;;;;;44.45;7.88;;;10.00;99.90;;;;;;4961347;28;20130;-80
2021/04/23 09:09:11;;;;;;;20.20;5.57;;;10.20;99.90;;;;;;4977717;28;20141;-81
2021/04/23 09:11:44;;;;;;;8.57;4.45;;;10.10;99.90;;;;;;4961411;28;20122;-81
2021/04/23 09:14:19;;;;;;;18.35;4.47;;;10.30;99.90;;;;;;4966026;28;20129;-81
2021/04/23 09:16:49;;;;;;;8.68;4.28;;;10.30;99.90;;;;;;4999459;28;20137;-79
2021/04/23 09:19:26;;;;;;;15.95;4.25;;;10.70;99.90;;;;;;4998208;28;20085;-80
2021/04/23 09:21:56;;;;;;;7.43;3.80;;;12.30;99.40;;;;;;4998120;28;20134;-80
2021/04/23 09:24:26;;;;;;;9.77;4.25;;;13.00;94.00;;;;;;4981341;28;20411;-80
2021/04/23 09:26:54;;;;;;;19.60;4.60;;;12.80;92.90;;;;;;4998039;28;20460;-81
2021/04/23 09:29:23;;;;;;;12.13;4.30;;;12.70;94.60;;;;;;4980883;28;20058;-80
2021/04/23 09:31:50;;;;;;;4.85;3.05;;;13.40;94.00;;;;;;4980704;28;20089;-79
2021/04/23 09:34:18;;;;;;;28.05;5.22;;;16.20;89.20;;;;;;4997720;28;20050;-80
2021/04/23 09:36:46;;;;;;;6.25;3.50;;;18.50;68.30;;;;;;4980014;28;20133;-77
2021/04/23 09:39:15;;;;;;;14.35;4.15;;;17.70;64.70;;;;;;4980499;28;20054;-80
2021/04/23 09:42:02;;;;;;;5.28;2.88;;;15.80;69.00;;;;;;4979707;28;20070;-80
2021/04/23 09:44:39;;;;;;;12.90;3.30;;;17.00;67.50;;;;;;4978381;28;20442;-79
2021/04/23 09:47:22;;;;;;;16.25;3.47;;;15.70;65.40;;;;;;4994752;28;20141;-80
2021/04/23 09:49:56;;;;;;;9.85;3.42;;;16.10;64.80;;;;;;4978320;28;20403;-79
2021/04/23 09:52:24;;;;;;;14.25;3.30;;;14.60;70.40;;;;;;4978017;28;20084;-80
2021/04/23 09:54:52;;;;;;;9.18;3.53;;;16.20;70.60;;;;;;4994897;28;20507;-79
2021/04/23 09:57:22;;;;;;;4.75;3.33;;;16.70;66.00;;;;;;4977984;28;20050;-80
2021/04/23 09:59:54;;;;;;;12.90;3.70;;;15.70;66.90;;;;;;4977554;28;20054;-79
2021/04/23 10:02:23;;;;;;;7.40;3.10;;;15.50;66.30;;;;;;4977349;28;20050;-79
2021/04/23 10:04:50;;;;;;;6.05;2.97;;;16.30;68.10;;;;;;4976962;28;20054;-79
2021/04/23 10:07:22;;;;;;;11.18;3.83;;;17.80;61.90;;;;;;4977575;28;20130;-79
2021/04/23 10:10:09;;;;;;;11.45;3.65;;;17.70;60.70;;;;;;4977045;28;20519;-79
2021/04/23 10:12:49;;;;;;;9.10;3.38;;;17.40;62.40;;;;;;4977455;28;20104;-80
2021/04/23 10:15:29;;;;;;;14.57;3.53;;;17.90;60.50;;;;;;4977438;28;20100;-79
2021/04/23 10:18:01;;;;;;;6.28;3.45;;;17.70;59.80;;;;;;4977402;28;20058;-80
2021/04/23 10:20:40;;;;;;;13.75;3.83;;;17.50;59.40;;;;;;4977499;28;20058;-81
2021/04/23 10:23:10;;;;;;;11.00;3.88;;;16.80;61.70;;;;;;4994946;28;20124;-79
2021/04/23 10:25:37;;;;;;;9.98;3.60;;;16.30;63.10;;;;;;4994803;28;20093;-81
2021/04/23 10:28:09;;;;;;;10.77;3.88;;;16.40;62.30;;;;;;4977584;28;20110;-80
2021/04/23 10:30:41;;;;;;;9.52;3.47;;;16.90;63.70;;;;;;4977560;28;20608;-81
2021/04/23 10:33:19;;;;;;;4.85;3.45;;;17.20;60.30;;;;;;4977390;28;20129;-80
2021/04/23 10:35:47;;;;;;;9.75;3.50;;;16.90;61.70;;;;;;4994123;28;20101;-78
2021/04/23 10:38:19;;;;;;;8.80;3.80;;;17.70;62.10;;;;;;4976662;28;20495;-75
2021/04/23 10:40:59;;;;;;;9.60;3.75;;;18.00;59.60;;;;;;4994728;28;20085;-79
2021/04/23 10:43:29;;;;;;;;;;;17.00;61.00;;;;;;4995483;28;20050;-79
2021/04/23 10:45:59;;;;;;;10.95;3.47;;;19.10;60.40;;;;;;4977645;28;19925;-76
2021/04/23 10:48:37;;;;;;;7.18;2.92;;;19.20;55.40;;;;;;4995119;28;20058;-77
2021/04/23 10:51:28;;;;;;;6.40;2.97;;;19.90;55.80;;;;;;4977510;28;20558;-78
2021/04/23 10:54:06;;;;;;;5.78;3.30;;;19.70;55.40;;;;;;4978390;28;20495;-79
2021/04/23 10:56:34;;;;;;;6.78;3.53;;;18.10;57.40;;;;;;4977774;28;20088;-77
2021/04/23 10:59:32;;;;;;;8.32;2.97;;;19.20;55.80;;;;;;4977816;28;20046;-80
2021/04/23 11:02:17;;;;;;;4.97;3.00;;;20.50;54.50;;;;;;4994605;28;20136;-78
2021/04/23 11:04:56;;;;;;;4.32;3.28;;;21.20;52.90;;;;;;4994738;28;20138;-78
2021/04/23 11:07:23;;;;;;;13.68;3.75;;;22.10;50.30;;;;;;4995622;28;20046;-79
2021/04/23 11:10:00;;;;;;;4.10;3.55;;;21.30;51.60;;;;;;4979408;28;20133;-80
2021/04/23 11:12:28;;;;;;;5.50;3.42;;;18.90;53.80;;;;;;4979518;28;20080;-78
2021/04/23 11:15:14;;;;;;;6.40;3.90;;;18.80;56.30;;;;;;4995870;28;20093;-79
2021/04/23 11:17:41;;;;;;;7.25;3.28;;;19.70;54.40;;;;;;4980012;28;20082;-79
2021/04/23 11:20:29;;;;;;;7.95;5.45;;;19.80;54.90;;;;;;4980288;28;20109;-78
2021/04/23 11:22:57;;;;;;;7.28;3.53;;;18.70;54.40;;;;;;4977569;28;20073;-78
2021/04/23 11:25:25;;;;;;;6.47;3.85;;;19.60;54.60;;;;;;4978752;28;20066;-79
2021/04/23 11:28:00;;;;;;;8.98;3.40;;;19.90;55.00;;;;;;4978413;28;20104;-78
2021/04/23 11:30:27;;;;;;;4.63;3.40;;;20.50;53.20;;;;;;4979018;28;20097;-79
2021/04/23 11:32:56;;;;;;;9.30;3.80;;;19.10;52.60;;;;;;4996168;28;20097;-77
2021/04/23 11:35:26;;;;;;;10.18;4.60;;;18.00;54.70;;;;;;4976614;28;20141;-78
2021/04/23 11:37:58;;;;;;;8.85;3.80;;;16.80;58.70;;;;;;4976675;28;20140;-77
2021/04/23 11:40:26;;;;;;;19.13;4.28;;;16.90;59.70;;;;;;4978063;28;20104;-77
2021/04/23 11:43:02;;;;;;;9.82;3.38;;;16.40;59.20;;;;;;4977239;28;20054;-77
2021/04/23 11:45:34;;;;;;;9.75;3.83;;;16.90;59.20;;;;;;4977358;28;20135;-77
2021/04/23 11:48:08;;;;;;;10.95;3.78;;;16.20;58.80;;;;;;4976686;28;20554;-76
2021/04/23 11:50:50;;;;;;;5.25;3.80;;;16.30;61.20;;;;;;4994479;28;20054;-78
2021/04/23 11:53:18;;;;;;;6.80;4.22;;;16.60;59.90;;;;;;4994582;28;20057;-78
2021/04/23 11:55:48;;;;;;;18.13;4.18;;;16.80;62.40;;;;;;4994643;28;20086;-78
2021/04/23 11:58:15;;;;;;;16.95;4.15;;;16.30;61.10;;;;;;4977692;28;20150;-80
2021/04/23 12:00:45;;;;;;;10.63;3.70;;;17.00;62.50;;;;;;4995673;28;20430;-80
2021/04/23 12:03:13;;;;;;;5.72;4.20;;;17.20;61.50;;;;;;4995041;28;20050;-78
2021/04/23 12:05:54;;;;;;;5.90;4.10;;;16.90;61.30;;;;;;4977937;28;20133;-79
2021/04/23 12:08:22;;;;;;;8.02;4.15;;;16.80;60.30;;;;;;4978387;28;20050;-79
2021/04/23 12:11:14;;;;;;;9.27;4.22;;;16.70;60.90;;;;;;4978027;28;20580;-79
2021/04/23 12:13:41;;;;;;;7.35;3.75;;;17.30;62.70;;;;;;4973665;28;20484;-80
2021/04/23 12:16:11;;;;;;;6.07;3.67;;;18.70;58.60;;;;;;4995111;28;20050;-80
2021/04/23 12:18:50;;;;;;;11.15;3.85;;;19.10;56.80;;;;;;4977874;28;20054;-80
2021/04/23 12:21:17;;;;;;;5.80;3.90;;;18.00;56.30;;;;;;4995658;28;20086;-80
2021/04/23 12:23:44;;;;;;;7.75;4.03;;;17.00;58.30;;;;;;4977988;28;20142;-79
2021/04/23 12:26:13;;;;;;;6.97;4.07;;;16.30;59.40;;;;;;4995934;28;20046;-80
2021/04/23 12:28:45;;;;;;;7.40;3.92;;;15.90;62.50;;;;;;4978426;28;20487;-80
2021/04/23 12:31:17;;;;;;;;;;;16.30;64.60;;;;;;4979548;28;20570;-78
2021/04/23 12:33:48;;;;;;;6.65;3.80;;;16.10;63.50;;;;;;4981343;28;19971;-79
2021/04/23 12:36:25;;;;;;;11.02;4.32;;;15.70;63.90;;;;;;4981691;28;20423;-79
2021/04/23 12:38:55;;;;;;;12.40;4.00;;;15.80;66.30;;;;;;4998989;28;20050;-80
2021/04/23 12:41:29;;;;;;;25.42;16.88;;;15.60;64.80;;;;;;4998829;28;20050;-80
2021/04/23 12:43:57;;;;;;;5.65;4.13;;;15.90;64.10;;;;;;4999123;28;20133;-78
2021/04/23 12:46:28;;;;;;;5.10;4.22;;;15.90;64.40;;;;;;4999578;28;20516;-80
2021/04/23 12:48:57;;;;;;;9.07;4.30;;;16.10;64.20;;;;;;4999514;28;20495;-80
2021/04/23 12:51:24;;;;;;;5.70;4.13;;;16.40;62.80;;;;;;4999765;28;20054;-79
2021/04/23 12:53:51;;;;;;;7.95;4.15;;;15.60;63.40;;;;;;4997437;28;20081;-79
2021/04/23 12:56:24;;;;;;;7.15;4.10;;;15.40;65.40;;;;;;4980984;28;20050;-80
2021/04/23 12:58:50;;;;;;;7.38;4.53;;;15.40;66.20;;;;;;4981597;28;20085;-79
2021/04/23 13:01:18;;;;;;;6.75;4.18;;;15.10;65.90;;;;;;4981486;28;20104;-80
2021/04/23 13:04:00;;;;;;;7.07;4.28;;;15.10;66.40;;;;;;4980997;28;20575;-79
2021/04/23 13:06:26;;;;;;;6.25;3.50;;;14.70;66.40;;;;;;4998309;28;20128;-78
2021/04/23 13:09:11;;;;;;;5.90;4.07;;;14.70;66.50;;;;;;4998956;28;20419;-80
2021/04/23 13:11:38;;;;;;;17.70;4.32;;;14.60;66.00;;;;;;4980843;28;20487;-78
2021/04/23 13:14:11;;;;;;;8.55;3.80;;;14.80;67.10;;;;;;4998201;28;20362;-78
2021/04/23 13:17:00;;;;;;;6.75;3.97;;;14.80;65.00;;;;;;4981567;28;20050;-78
2021/04/23 13:19:45;;;;;;;6.55;3.60;;;14.30;65.20;;;;;;4997327;28;20054;-78
2021/04/23 13:22:23;;;;;;;9.77;4.03;;;14.60;64.40;;;;;;4979952;28;20141;-79
2021/04/23 13:25:10;;;;;;;5.88;3.60;;;14.40;65.00;;;;;;4996130;28;20137;-77
2021/04/23 13:27:39;;;;;;;9.80;3.45;;;14.50;68.20;;;;;;4961760;28;20141;-78
2021/04/23 13:30:08;;;;;;;7.88;3.72;;;14.40;63.50;;;;;;4995495;28;20046;-79
2021/04/23 13:32:55;;;;;;;6.38;3.80;;;14.30;66.00;;;;;;4978887;28;20097;-77
2021/04/23 13:35:34;;;;;;;6.85;3.75;;;14.20;67.40;;;;;;4995659;28;20470;-77
2021/04/23 13:38:19;;;;;;;4.97;3.83;;;14.60;68.90;;;;;;4977929;28;20400;-77
2021/04/23 13:40:46;;;;;;;8.50;3.45;;;14.60;65.80;;;;;;4978204;28;20062;-77
2021/04/23 13:43:14;;;;;;;7.32;3.65;;;14.80;67.70;;;;;;4977381;28;20137;-76
2021/04/23 13:45:55;;;;;;;7.30;3.58;;;14.80;64.30;;;;;;4996300;28;20134;-78
2021/04/23 13:48:26;;;;;;;4.88;3.50;;;14.60;64.60;;;;;;4996803;28;20110;-78
2021/04/23 13:50:58;;;;;;;8.85;3.53;;;14.30;64.40;;;;;;4979503;28;20081;-79
2021/04/23 13:53:36;;;;;;;6.28;3.75;;;14.50;65.90;;;;;;4996491;28;20133;-80
2021/04/23 13:56:18;;;;;;;6.47;3.50;;;14.70;65.10;;;;;;4979730;28;20545;-78
2021/04/23 13:58:59;;;;;;;3.67;3.17;;;14.30;62.60;;;;;;4997003;28;20133;-79
2021/04/23 14:01:31;;;;;;;7.10;3.67;;;14.80;63.10;;;;;;4982675;28;20427;-78
2021/04/23 14:04:00;;;;;;;13.73;3.53;;;14.90;63.50;;;;;;4982489;28;20046;-78
2021/04/23 14:06:27;;;;;;;6.45;3.05;;;14.60;63.00;;;;;;5000832;28;20057;-78
2021/04/23 14:08:54;;;;;;;5.50;3.30;;;14.40;64.60;;;;;;4982552;28;20511;-78
2021/04/23 14:11:21;;;;;;;6.63;3.92;;;14.60;67.40;;;;;;4999924;28;20058;-76
2021/04/23 14:14:00;;;;;;;15.98;3.97;;;14.50;64.10;;;;;;4981177;28;20050;-78
2021/04/23 14:16:28;;;;;;;4.60;3.50;;;14.40;63.60;;;;;;5000329;28;20074;-78
2021/04/23 14:18:55;;;;;;;4.07;3.25;;;14.50;63.50;;;;;;4996155;28;20050;-78
2021/04/23 14:21:22;;;;;;;5.28;2.80;;;14.40;61.50;;;;;;4979359;28;20133;-78
2021/04/23 14:23:49;;;;;;;5.35;3.33;;;14.10;63.00;;;;;;4979272;28;20085;-80
2021/04/23 14:26:15;;;;;;;5.88;3.42;;;14.00;63.50;;;;;;4996710;28;20073;-78
2021/04/23 14:28:43;;;;;;;4.78;3.80;;;13.90;62.80;;;;;;4979284;28;20080;-79
2021/04/23 14:31:10;;;;;;;6.18;3.45;;;14.00;64.20;;;;;;4979791;28;20050;-79
2021/04/23 14:33:36;;;;;;;10.50;3.47;;;14.50;65.70;;;;;;4996726;28;20085;-78
2021/04/23 14:36:03;;;;;;;6.70;3.30;;;14.60;64.20;;;;;;4978384;28;20057;-79
2021/04/23 14:38:29;;;;;;;8.82;3.17;;;14.70;64.00;;;;;;4979442;28;20054;-79
2021/04/23 14:40:56;;;;;;;5.05;3.45;;;14.70;62.30;;;;;;4995460;28;20077;-79
2021/04/23 14:43:23;;;;;;;6.07;3.35;;;14.80;60.90;;;;;;4979269;28;20506;-78
2021/04/23 14:45:51;;;;;;;4.88;3.72;;;14.50;62.80;;;;;;4996530;28;20149;-80
2021/04/23 14:48:17;;;;;;;5.18;3.33;;;14.20;63.40;;;;;;4997594;28;20050;-78
2021/04/23 14:50:44;;;;;;;5.70;3.50;;;14.10;67.70;;;;;;4979836;28;20100;-78
2021/04/23 14:53:10;;;;;;;5.05;4.00;;;14.10;65.80;;;;;;4996542;28;20126;-78
2021/04/23 14:55:36;;;;;;;6.97;3.60;;;13.90;64.20;;;;;;4978920;28;20137;-78
2021/04/23 14:58:03;;;;;;;6.05;3.95;;;13.70;65.30;;;;;;4979228;28;20514;-78
2021/04/23 15:00:30;;;;;;;7.05;3.97;;;13.50;65.20;;;;;;4979230;28;20090;-78
2021/04/23 15:02:56;;;;;;;7.28;3.63;;;13.40;65.80;;;;;;4995258;28;20085;-78
2021/04/23 15:05:24;;;;;;;8.55;3.47;;;13.50;67.50;;;;;;4995567;28;20088;-77
2021/04/23 15:07:50;;;;;;;7.50;3.50;;;13.60;66.90;;;;;;4995397;28;20074;-77
2021/04/23 15:10:18;;;;;;;6.60;3.50;;;13.60;66.50;;;;;;4978157;28;20459;-77
2021/04/23 15:12:45;;;;;;;6.72;3.95;;;13.70;66.50;;;;;;4978157;28;20246;-78
2021/04/23 15:15:12;;;;;;;4.55;3.38;;;13.70;67.80;;;;;;4977308;28;20082;-78
2021/04/23 15:17:39;;;;;;;8.50;4.32;;;13.90;67.10;;;;;;4976471;28;20392;-79
2021/04/23 15:20:08;;;;;;;8.07;4.07;;;13.80;67.50;;;;;;4993820;28;20396;-78
2021/04/23 15:22:35;;;;;;;8.98;4.43;;;13.70;65.80;;;;;;4976553;28;20062;-78
2021/04/23 15:25:04;;;;;;;4.57;3.55;;;13.70;67.00;;;;;;4995269;28;20058;-77
2021/04/23 15:27:30;;;;;;;5.45;3.47;;;13.90;65.40;;;;;;4977778;28;20050;-78
2021/04/23 15:29:56;;;;;;;6.07;3.80;;;13.80;67.40;;;;;;4994563;28;20086;-78
2021/04/23 15:32:23;;;;;;;7.90;3.97;;;13.60;67.20;;;;;;4994973;28;20057;-78
2021/04/23 15:34:49;;;;;;;7.70;3.72;;;13.50;67.30;;;;;;4994287;28;20076;-77
2021/04/23 15:37:16;;;;;;;8.23;4.20;;;13.30;67.50;;;;;;4976882;28;20511;-78
2021/04/23 15:39:42;;;;;;;7.97;3.67;;;13.20;67.70;;;;;;4976941;28;20050;-77
2021/04/23 15:42:08;;;;;;;7.47;4.45;;;13.30;69.50;;;;;;4994896;28;20084;-77
2021/04/23 15:44:35;;;;;;;5.55;3.83;;;13.40;68.90;;;;;;4994032;28;20137;-77
2021/04/23 15:47:01;;;;;;;6.40;4.55;;;13.20;68.40;;;;;;4977420;28;20051;-79
2021/04/23 15:49:28;;;;;;;6.68;4.40;;;13.10;69.70;;;;;;4977850;28;20054;-78
2021/04/23 15:51:54;;;;;;;4.88;4.30;;;13.10;70.20;;;;;;4994398;28;20050;-78
2021/04/23 15:54:20;;;;;;;5.53;4.28;;;13.00;70.40;;;;;;4977236;28;20145;-78
2021/04/23 15:56:46;;;;;;;7.03;3.80;;;12.90;70.10;;;;;;4994439;28;20054;-78
2021/04/23 15:59:13;;;;;;;6.97;3.90;;;12.80;69.20;;;;;;4994677;28;20104;-78
2021/04/23 16:01:39;;;;;;;10.85;6.72;;;12.80;71.10;;;;;;4995358;28;20046;-79
2021/04/23 16:04:06;;;;;;;5.97;3.90;;;12.80;69.30;;;;;;4995225;28;20058;-78
2021/04/23 16:06:32;;;;;;;5.72;4.05;;;12.80;71.20;;;;;;4997394;28;20057;-78
2021/04/23 16:09:02;;;;;;;5.70;3.70;;;12.80;70.80;;;;;;4981779;28;20518;-78
2021/04/23 16:11:29;;;;;;;5.38;3.17;;;13.00;72.90;;;;;;4999255;28;20400;-78
2021/04/23 16:13:55;;;;;;;8.45;5.07;;;13.10;70.90;;;;;;4998526;28;20166;-78
2021/04/23 16:16:22;;;;;;;7.85;3.95;;;13.20;71.80;;;;;;4981906;28;20046;-79
2021/04/23 16:18:51;;;;;;;6.38;4.05;;;13.20;69.90;;;;;;4998095;28;20057;-77
2021/04/23 16:21:18;;;;;;;7.20;3.85;;;13.10;70.40;;;;;;4998824;28;20558;-79
2021/04/23 16:23:45;;;;;;;11.10;4.05;;;12.90;71.40;;;;;;4981596;28;20050;-77
2021/04/23 16:26:11;;;;;;;7.00;4.68;;;13.00;72.40;;;;;;4982048;28;20084;-78
2021/04/23 16:28:38;;;;;;;11.13;3.47;;;13.00;69.70;;;;;;4999031;28;20138;-78
2021/04/23 16:31:04;;;;;;;6.60;3.55;;;13.10;69.30;;;;;;4999231;28;20082;-79
2021/04/23 16:33:30;;;;;;;6.05;3.58;;;13.30;68.10;;;;;;4981770;28;20418;-79
2021/04/23 16:35:57;;;;;;;9.50;4.30;;;13.30;69.50;;;;;;4981979;28;20086;-78
2021/04/23 16:38:23;;;;;;;7.40;3.80;;;13.20;69.00;;;;;;4999171;28;20082;-79
2021/04/23 16:40:49;;;;;;;5.63;2.72;;;13.50;68.30;;;;;;4980983;28;20113;-78
2021/04/23 16:43:15;;;;;;;7.13;3.40;;;13.90;68.60;;;;;;4981610;28;20090;-78
2021/04/23 16:45:42;;;;;;;7.35;3.88;;;14.50;66.90;;;;;;4982259;28;20073;-79
2021/04/23 16:48:09;;;;;;;4.95;2.60;;;14.30;66.60;;;;;;4982189;28;20378;-79
2021/04/23 16:50:38;;;;;;;5.15;2.80;;;14.70;69.30;;;;;;4999739;28;20090;-79
2021/04/23 16:53:06;;;;;;;7.72;3.95;;;15.10;64.50;;;;;;4999687;28;20074;-79
2021/04/23 16:55:33;;;;;;;4.15;2.60;;;14.90;64.60;;;;;;5000256;28;20585;-79
2021/04/23 16:58:00;;;;;;;4.50;2.60;;;14.00;66.20;;;;;;4982726;28;20134;-79
2021/04/23 17:00:26;;;;;;;4.97;3.55;;;14.60;65.00;;;;;;4999944;28;20138;-78
2021/04/23 17:02:54;;;;;;;11.18;3.03;;;14.70;64.10;;;;;;4982568;28;20054;-78
2021/04/23 17:05:21;;;;;;;5.53;2.90;;;14.40;65.10;;;;;;4995276;28;20039;-79
2021/04/23 17:07:48;;;;;;;5.55;2.67;;;13.70;66.00;;;;;;4983334;28;20086;-77
2021/04/23 17:10:17;;;;;;;6.10;3.63;;;13.10;74.50;;;;;;4980291;28;20150;-77
2021/04/23 17:12:44;;;;;;;5.38;3.72;;;12.40;72.70;;;;;;4974555;28;20074;-78
2021/04/23 17:15:13;;;;;;;6.88;3.42;;;12.00;72.80;;;;;;4976028;28;20102;-76
2021/04/23 17:17:41;;;;;;;3.25;2.80;;;11.70;78.60;;;;;;4975652;28;20081;-77
2021/04/23 17:20:13;;;;;;;9.00;3.38;;;11.40;80.00;;;;;;4973381;28;20055;-77
2021/04/23 17:22:41;;;;;;;7.63;2.75;;;11.20;78.80;;;;;;4959018;28;20109;-78
2021/04/23 17:25:09;;;;;;;6.70;2.42;;;11.00;83.20;;;;;;4975495;28;20085;-78
2021/04/23 17:27:35;;;;;;;6.93;2.95;;;10.90;86.20;;;;;;4976003;28;20050;-77
2021/04/23 17:30:05;;;;;;;7.07;2.70;;;10.60;89.80;;;;;;4975748;28;20051;-76
2021/04/23 17:32:31;;;;;;;6.18;2.58;;;10.50;93.70;;;;;;4974323;28;20082;-78
2021/04/23 17:34:57;;;;;;;4.53;2.33;;;10.30;95.10;;;;;;4974988;28;20086;-77
2021/04/23 17:37:24;;;;;;;4.30;2.30;;;10.30;97.10;;;;;;4944907;28;20070;-77
2021/04/23 17:39:50;;;;;;;11.90;2.67;;;10.00;99.90;;;;;;4940474;28;20061;-77
2021/04/23 17:42:17;;;;;;;6.80;2.13;;;9.90;99.90;;;;;;4956116;28;20051;-75
2021/04/23 17:44:45;;;;;;;7.85;2.33;;;9.70;99.90;;;;;;4956499;28;20572;-77
2021/04/23 17:47:12;;;;;;;4.53;3.17;;;9.70;99.90;;;;;;4956883;29;20074;-77
2021/04/23 17:49:38;;;;;;;9.07;4.35;;;9.60;99.90;;;;;;4939667;29;20051;-76
2021/04/23 17:52:04;;;;;;;5.07;3.00;;;9.50;99.90;;;;;;4938337;28;20480;-77
2021/04/23 17:54:30;;;;;;;4.60;2.95;;;9.40;99.90;;;;;;4954591;28;20077;-78
2021/04/23 17:56:57;;;;;;;5.45;2.10;;;9.40;99.90;;;;;;4973613;28;20130;-78
2021/04/23 17:59:23;;;;;;;6.70;2.90;;;9.40;99.90;;;;;;4973836;28;20073;-77
2021/04/23 18:01:50;;;;;;;9.90;3.80;;;9.20;99.90;;;;;;4974764;28;20420;-77
2021/04/23 18:04:16;;;;;;;6.30;3.60;;;9.20;99.90;;;;;;4977423;28;20093;-77
2021/04/23 18:06:42;;;;;;;5.15;3.33;;;9.00;99.90;;;;;;4993648;28;20129;-79
2021/04/23 18:09:09;;;;;;;6.20;3.60;;;8.90;99.90;;;;;;4977373;28;20129;-76
2021/04/23 18:11:35;;;;;;;9.02;3.53;;;8.90;99.90;;;;;;4975043;28;20221;-76
2021/04/23 18:14:05;;;;;;;6.93;4.35;;;8.70;99.90;;;;;;4977476;28;20054;-78
2021/04/23 18:16:31;;;;;;;6.75;3.08;;;8.60;99.90;;;;;;4978945;28;20102;-78
2021/04/23 18:18:58;;;;;;;8.85;3.22;;;8.50;99.90;;;;;;4976320;28;20054;-78
2021/04/23 18:21:25;;;;;;;38.65;6.68;;;8.40;99.90;;;;;;4975474;28;20077;-80
2021/04/23 18:23:51;;;;;;;10.10;3.85;;;8.30;99.90;;;;;;4976977;28;20050;-79
2021/04/23 18:26:18;;;;;;;5.93;2.72;;;8.10;99.90;;;;;;4995782;28;20046;-78
2021/04/23 18:28:45;;;;;;;9.82;3.15;;;8.00;99.90;;;;;;4995832;28;20085;-78
2021/04/23 18:31:11;;;;;;;10.07;3.75;;;7.80;99.90;;;;;;4996242;28;20114;-78
2021/04/23 18:33:38;;;;;;;9.07;3.88;;;7.70;99.90;;;;;;4995575;28;20133;-77
2021/04/23 18:36:05;;;;;;;6.90;2.83;;;7.60;99.90;;;;;;4977986;28;20129;-78
2021/04/23 18:38:33;;;;;;;3.92;2.50;;;7.40;99.90;;;;;;4978028;28;20129;-78
2021/04/23 18:40:59;;;;;;;3.58;2.70;;;7.30;99.90;;;;;;4977941;28;20105;-78
2021/04/23 18:43:25;;;;;;;5.28;2.80;;;7.10;99.90;;;;;;4995244;28;20138;-78
2021/04/23 18:45:52;;;;;;;7.32;3.38;;;7.00;99.90;;;;;;4994974;28;20054;-77
2021/04/23 18:48:18;;;;;;;6.28;4.00;;;7.00;99.90;;;;;;4994554;28;20046;-76
2021/04/23 18:50:45;;;;;;;7.13;4.60;;;6.90;99.90;;;;;;4977807;28;20396;-81
2021/04/23 18:53:11;;;;;;;16.52;3.50;;;6.70;99.90;;;;;;4977211;28;20133;-77
2021/04/23 18:55:37;;;;;;;17.60;3.60;;;6.60;99.90;;;;;;4993528;28;20088;-76
2021/04/23 18:58:04;;;;;;;4.60;2.78;;;6.50;99.90;;;;;;4993510;28;20077;-77
2021/04/23 19:00:30;;;;;;;6.70;3.03;;;6.40;99.90;;;;;;4993533;28;20101;-77